Time;durP1;ratioP1;P1;durP2;ratioP2;P2;SDS_P1;SDS_P2;PMS_P1;PMS_P2;Temp;Humidity;BMP_temperature;BMP_pressure;BME280_temperature;BME280_humidity;BME280_pressure;Samples;Min_cycle;Max_cycle;Signal;HPM_P1;HPM_P2
2021/09/12 00:01:35;;;;;;;31.67;19.63;;;;;;;16.41;100.00;101454.22;5017959;28;20102;-77
2021/09/12 00:04:02;;;;;;;39.40;19.40;;;;;;;16.41;100.00;101448.94;5014571;28;20499;-75
2021/09/12 00:06:28;;;;;;;33.70;20.10;;;;;;;16.40;100.00;101453.38;4998337;28;20513;-76
2021/09/12 00:08:54;;;;;;;33.85;19.27;;;;;;;16.39;100.00;101459.69;5014734;28;20060;-77
2021/09/12 00:11:20;;;;;;;36.08;20.63;;;;;;;16.40;100.00;101452.56;5013924;28;20037;-74
2021/09/12 00:13:46;;;;;;;38.95;21.35;;;;;;;16.35;100.00;101448.59;4994835;28;20037;-76
2021/09/12 00:16:13;;;;;;;46.30;21.02;;;;;;;16.38;100.00;101452.72;5018357;28;20043;-77
2021/09/12 00:18:39;;;;;;;38.15;21.45;;;;;;;16.41;100.00;101444.44;5004406;28;20033;-76
2021/09/12 00:21:05;;;;;;;37.22;20.95;;;;;;;16.40;100.00;101442.78;4993980;28;20025;-79
2021/09/12 00:23:33;;;;;;;42.20;21.92;;;;;;;16.42;100.00;101446.09;4994081;28;20080;-75
2021/09/12 00:25:59;;;;;;;41.22;22.35;;;;;;;16.37;100.00;101448.44;4992920;28;20030;-76
2021/09/12 00:28:25;;;;;;;30.90;19.48;;;;;;;16.41;100.00;101449.75;4994346;28;20045;-76
2021/09/12 00:30:50;;;;;;;37.70;20.17;;;;;;;16.33;100.00;101447.09;4995863;28;20107;-76
2021/09/12 00:33:16;;;;;;;38.17;20.75;;;;;;;16.31;100.00;101444.63;5017919;28;20037;-75
2021/09/12 00:35:43;;;;;;;37.83;20.30;;;;;;;16.29;100.00;101443.13;4999840;28;20029;-78
2021/09/12 00:38:09;;;;;;;38.30;20.63;;;;;;;16.30;100.00;101444.78;5031590;28;20060;-77
2021/09/12 00:40:34;;;;;;;44.72;24.35;;;;;;;16.30;100.00;101444.78;5015191;28;20121;-77
2021/09/12 00:43:00;;;;;;;42.42;22.33;;;;;;;16.29;100.00;101440.47;5006247;28;20045;-75
2021/09/12 00:45:26;;;;;;;50.13;24.25;;;;;;;16.30;100.00;101427.09;4997995;28;20327;-73
2021/09/12 00:47:52;;;;;;;37.78;22.02;;;;;;;16.27;100.00;101434.53;4997319;28;20688;-76
2021/09/12 00:50:22;;;;;;;40.97;21.60;;;;;;;16.23;100.00;101427.91;4999884;28;20033;-72
2021/09/12 00:52:48;;;;;;;41.72;23.30;;;;;;;16.19;100.00;101431.91;5010275;28;20128;-76
2021/09/12 00:55:14;;;;;;;40.47;22.63;;;;;;;16.23;100.00;101430.56;5026995;28;20049;-77
2021/09/12 00:57:45;;;;;;;45.75;23.50;;;;;;;16.20;100.00;101430.88;5014347;28;20076;-76
2021/09/12 01:00:12;;;;;;;47.25;23.13;;;;;;;16.25;100.00;101434.69;5004351;28;20729;-73
2021/09/12 01:02:38;;;;;;;42.55;24.27;;;;;;;16.18;100.00;101431.09;4975717;28;20038;-74
2021/09/12 01:05:16;;;;;;;48.67;25.23;;;;;;;16.22;100.00;101435.03;5006854;28;20063;-75
2021/09/12 01:07:42;;;;;;;46.53;25.02;;;;;;;16.21;100.00;101448.44;5013859;28;20037;-74
2021/09/12 01:10:09;;;;;;;43.47;25.45;;;;;;;16.22;100.00;101442.97;4997788;28;20738;-77
2021/09/12 01:12:35;;;;;;;48.75;26.75;;;;;;;16.29;100.00;101451.06;5001480;28;20118;-79
2021/09/12 01:15:01;;;;;;;45.05;24.85;;;;;;;16.28;100.00;101449.44;4991623;28;20043;-76
2021/09/12 01:17:30;;;;;;;52.20;26.85;;;;;;;16.24;100.00;101448.94;5006477;28;20031;-75
2021/09/12 01:19:56;;;;;;;50.10;24.92;;;;;;;16.24;100.00;101440.19;5014099;28;20033;-77
2021/09/12 01:22:23;;;;;;;48.17;24.25;;;;;;;16.28;100.00;101441.50;5008628;28;20600;-74
2021/09/12 01:24:49;;;;;;;41.08;22.02;;;;;;;16.23;100.00;101444.63;4983708;28;20832;-76
2021/09/12 01:27:14;;;;;;;47.85;25.23;;;;;;;16.20;100.00;101434.38;5013458;28;20557;-76
2021/09/12 01:29:40;;;;;;;43.78;23.50;;;;;;;16.18;100.00;101435.53;4989705;28;20037;-75
2021/09/12 01:32:06;;;;;;;47.08;24.85;;;;;;;16.11;100.00;101427.44;4986387;28;20030;-75
2021/09/12 01:34:34;;;;;;;48.85;26.77;;;;;;;16.14;100.00;101430.59;5011194;28;20034;-73
2021/09/12 01:37:00;;;;;;;43.05;23.98;;;;;;;16.10;100.00;101431.06;4995773;28;20040;-73
2021/09/12 01:39:25;;;;;;;46.42;25.50;;;;;;;16.11;100.00;101433.56;5017443;28;20033;-75
2021/09/12 01:41:51;;;;;;;48.80;26.48;;;;;;;16.10;100.00;101423.94;5009547;28;20030;-77
2021/09/12 01:44:23;;;;;;;44.58;24.67;;;;;;;16.15;100.00;101432.22;4998250;28;20118;-74
2021/09/12 01:46:50;;;;;;;53.00;27.80;;;;;;;16.18;100.00;101431.09;5009862;28;20040;-75
2021/09/12 01:49:16;;;;;;;51.25;27.17;;;;;;;16.20;100.00;101428.25;5011339;28;20120;-74
2021/09/12 01:51:42;;;;;;;47.95;27.00;;;;;;;16.17;100.00;101421.47;5009564;28;20131;-75
2021/09/12 01:54:08;;;;;;;45.60;26.45;;;;;;;16.15;100.00;101426.13;4995915;28;20107;-75
2021/09/12 01:56:34;;;;;;;44.40;25.90;;;;;;;16.17;100.00;101423.31;5025371;28;20087;-75
2021/09/12 01:59:03;;;;;;;44.95;25.70;;;;;;;16.13;100.00;101428.09;4975549;28;20455;-74
2021/09/12 02:01:28;;;;;;;51.00;24.73;;;;;;;16.10;100.00;101425.78;5033722;28;20112;-75
2021/09/12 02:03:54;;;;;;;55.83;26.85;;;;;;;16.13;100.00;101425.47;5013248;28;20590;-74
2021/09/12 02:06:20;;;;;;;47.88;26.65;;;;;;;16.12;100.00;101435.22;5004173;28;20037;-73
2021/09/12 02:08:45;;;;;;;47.33;24.63;;;;;;;16.09;100.00;101440.03;5011675;28;20041;-78
2021/09/12 02:11:14;;;;;;;47.75;25.23;;;;;;;16.09;100.00;101440.03;5019910;28;20040;-74
2021/09/12 02:13:40;;;;;;;47.58;25.45;;;;;;;16.11;100.00;101435.38;5007479;28;20034;-76
2021/09/12 02:16:05;;;;;;;45.80;25.35;;;;;;;16.10;100.00;101431.88;5033767;28;20064;-75
2021/09/12 02:18:31;;;;;;;49.88;26.17;;;;;;;16.14;100.00;101435.03;5005999;28;20060;-77
2021/09/12 02:20:56;;;;;;;50.78;25.77;;;;;;;16.12;100.00;101431.72;5031142;28;20068;-76
2021/09/12 02:23:22;;;;;;;54.92;25.42;;;;;;;16.10;100.00;101428.41;5038420;28;20042;-76
2021/09/12 02:25:48;;;;;;;46.65;25.42;;;;;;;16.13;100.00;101438.69;4993230;28;20045;-76
2021/09/12 02:28:14;;;;;;;55.67;26.67;;;;;;;16.08;100.00;101433.88;5005726;28;20057;-74
2021/09/12 02:30:40;;;;;;;52.75;28.35;;;;;;;16.09;100.00;101432.06;5022263;28;20557;-76
2021/09/12 02:33:06;;;;;;;59.63;30.50;;;;;;;16.13;100.00;101439.50;5005934;28;20033;-77
2021/09/12 02:35:31;;;;;;;54.80;29.25;;;;;;;16.13;100.00;101436.84;5007562;28;20052;-77
2021/09/12 02:37:57;;;;;;;56.70;29.08;;;;;;;16.18;100.00;101435.53;4994745;28;20029;-77
2021/09/12 02:40:23;;;;;;;57.25;29.77;;;;;;;16.19;100.00;101438.00;5009363;28;20521;-74
2021/09/12 02:42:48;;;;;;;59.40;30.33;;;;;;;16.18;100.00;101441.66;5014037;28;20041;-76
2021/09/12 02:45:14;;;;;;;52.80;28.00;;;;;;;16.14;100.00;101442.97;5039778;28;20037;-73
2021/09/12 02:47:40;;;;;;;53.40;28.15;;;;;;;16.10;100.00;101441.66;5013293;28;20037;-75
2021/09/12 02:50:06;;;;;;;58.20;28.38;;;;;;;16.10;100.00;101444.31;5000831;28;20111;-75
2021/09/12 02:52:31;;;;;;;59.33;28.13;;;;;;;16.07;100.00;101448.13;5020108;28;20179;-76
2021/09/12 02:54:59;;;;;;;51.85;28.10;;;;;;;16.07;100.00;101452.59;5046353;28;20565;-75
2021/09/12 02:57:25;;;;;;;46.53;25.58;;;;;;;16.08;100.00;101452.41;5014744;28;20029;-75
2021/09/12 02:59:51;;;;;;;48.25;28.05;;;;;;;16.09;100.00;101461.19;5002197;28;20041;-74
2021/09/12 03:02:17;;;;;;;50.80;27.02;;;;;;;16.03;100.00;101453.88;5012961;28;20171;-76
2021/09/12 03:04:42;;;;;;;53.10;28.50;;;;;;;15.99;100.00;101450.75;5038109;28;20123;-77
2021/09/12 03:07:08;;;;;;;54.63;29.90;;;;;;;16.02;100.00;101454.91;5011203;28;20083;-75
2021/09/12 03:09:33;;;;;;;49.95;27.80;;;;;;;15.99;100.00;101450.75;5016340;28;20512;-74
2021/09/12 03:11:59;;;;;;;63.58;30.92;;;;;;;15.95;100.00;101452.06;5030778;28;20026;-75
2021/09/12 03:14:24;;;;;;;56.45;28.45;;;;;;;15.86;100.00;101445.09;5000394;28;20131;-74
2021/09/12 03:16:50;;;;;;;56.03;28.13;;;;;;;15.89;100.00;101450.09;5024163;28;20485;-74
2021/09/12 03:19:16;;;;;;;50.33;28.90;;;;;;;15.93;100.00;101451.41;5022665;28;20036;-75
2021/09/12 03:21:42;;;;;;;56.15;29.63;;;;;;;15.95;100.00;101449.41;5013823;28;20032;-75
2021/09/12 03:24:08;;;;;;;56.88;28.55;;;;;;;15.95;100.00;101446.78;5009673;28;20392;-75
2021/09/12 03:26:34;;;;;;;58.10;30.38;;;;;;;15.98;100.00;101456.22;5020070;28;20033;-75
2021/09/12 03:28:59;;;;;;;51.95;29.50;;;;;;;15.94;100.00;101445.13;5035390;23;20052;-82
2021/09/12 03:31:25;;;;;;;53.65;29.33;;;;;;;15.82;100.00;101433.22;5020027;28;20029;-80
2021/09/12 03:33:50;;;;;;;61.50;31.77;;;;;;;15.72;100.00;101443.91;5014376;28;20037;-82
2021/09/12 03:36:16;;;;;;;52.08;29.27;;;;;;;15.63;100.00;101436.97;5008571;28;20033;-81
2021/09/12 03:38:41;;;;;;;53.33;28.55;;;;;;;15.60;100.00;101442.59;5003987;28;20041;-83
2021/09/12 03:41:07;;;;;;;55.05;30.30;;;;;;;15.49;100.00;101449.81;5028829;28;20039;-83
2021/09/12 03:43:32;;;;;;;57.13;30.35;;;;;;;15.40;100.00;101442.84;5045572;28;20474;-83
2021/09/12 03:45:58;;;;;;;56.38;30.42;;;;;;;15.35;100.00;101445.16;5016221;28;20024;-82
2021/09/12 03:48:24;;;;;;;57.90;31.13;;;;;;;15.28;100.00;101444.97;5036917;28;20055;-81
2021/09/12 03:50:50;;;;;;;59.67;32.47;;;;;;;15.23;100.00;101447.25;5011399;28;20036;-81
2021/09/12 03:53:16;;;;;;;58.80;30.73;;;;;;;15.26;100.00;101454.06;5033562;28;20124;-82
2021/09/12 03:55:42;;;;;;;54.80;28.75;;;;;;;15.21;100.00;101445.78;5021882;28;20050;-82
2021/09/12 03:58:08;;;;;;;55.40;28.17;;;;;;;15.14;100.00;101443.78;5032114;28;20036;-81
2021/09/12 04:00:33;;;;;;;58.53;30.63;;;;;;;15.10;100.00;101441.59;5008200;28;20026;-82
2021/09/12 04:02:59;;;;;;;57.35;30.17;;;;;;;15.05;100.00;101446.53;5026309;28;20033;-82
2021/09/12 04:05:24;;;;;;;53.00;29.15;;;;;;;14.99;100.00;101443.56;5009264;28;20037;-82
2021/09/12 04:07:50;;;;;;;57.30;29.98;;;;;;;14.94;100.00;101435.28;5028835;28;20089;-80
2021/09/12 04:10:17;;;;;;;57.90;30.33;;;;;;;14.93;100.00;101438.88;5014476;28;20033;-81
2021/09/12 04:12:43;;;;;;;48.75;28.38;;;;;;;14.90;100.00;101441.84;5014501;28;20065;-82
2021/09/12 04:15:09;;;;;;;51.55;29.77;;;;;;;14.89;100.00;101445.47;5019393;28;20064;-81
2021/09/12 04:17:36;;;;;;;47.78;28.88;;;;;;;14.86;100.00;101451.09;5028525;28;20135;-81
2021/09/12 04:20:03;;;;;;;54.10;28.35;;;;;;;14.83;100.00;101447.94;5017102;28;20451;-82
2021/09/12 04:22:29;;;;;;;49.33;28.40;;;;;;;14.81;100.00;101449.91;5019654;28;20051;-79
2021/09/12 04:24:54;;;;;;;52.55;28.20;;;;;;;14.75;100.00;101443.44;5024224;28;20028;-81
2021/09/12 04:27:20;;;;;;;50.05;27.63;;;;;;;14.78;100.00;101441.28;5019872;28;20096;-81
2021/09/12 04:29:45;;;;;;;51.35;28.77;;;;;;;14.81;100.00;101447.25;5020798;28;20040;-80
2021/09/12 04:32:11;;;;;;;53.88;28.92;;;;;;;14.83;100.00;101448.75;5022650;28;20035;-81
2021/09/12 04:34:36;;;;;;;52.15;29.23;;;;;;;14.83;100.00;101445.28;5009938;28;20036;-81
2021/09/12 04:37:02;;;;;;;48.97;28.65;;;;;;;14.87;100.00;101442.16;5015918;28;20033;-83
2021/09/12 04:39:28;;;;;;;45.47;26.77;;;;;;;14.84;100.00;101437.19;5004352;28;20041;-83
2021/09/12 04:41:54;;;;;;;47.03;28.00;;;;;;;14.93;100.00;101445.97;5007896;28;20077;-82
2021/09/12 04:44:19;;;;;;;52.00;28.42;;;;;;;14.91;100.00;101445.31;5003431;28;20064;-83
2021/09/12 04:46:45;;;;;;;51.13;29.15;;;;;;;14.91;100.00;101450.59;4996621;28;20045;-83
2021/09/12 04:49:10;;;;;;;52.50;28.23;;;;;;;14.90;100.00;101443.66;5002719;28;20033;-84
2021/09/12 04:51:36;;;;;;;49.47;27.38;;;;;;;14.94;100.00;101458.22;5002636;28;20040;-82
2021/09/12 04:54:01;;;;;;;45.42;27.02;;;;;;;14.98;100.00;101454.28;5028870;28;20494;-84
2021/09/12 04:56:27;;;;;;;51.25;27.98;;;;;;;15.01;100.00;101456.56;5021641;28;20470;-84
2021/09/12 04:58:52;;;;;;;46.65;26.73;;;;;;;15.02;100.00;101460.88;5004642;28;20033;-84
2021/09/12 05:01:18;;;;;;;51.58;28.95;;;;;;;14.99;100.00;101451.47;5005671;28;20049;-83
2021/09/12 05:03:43;;;;;;;57.35;30.27;;;;;;;15.03;100.00;101459.91;5026811;28;20032;-82
2021/09/12 05:06:09;;;;;;;45.80;26.27;;;;;;;15.03;100.00;101454.63;5014291;28;20127;-83
2021/09/12 05:08:35;;;;;;;45.75;27.45;;;;;;;15.07;100.00;101453.31;5019592;28;20044;-81
2021/09/12 05:11:00;;;;;;;41.63;25.88;;;;;;;15.09;100.00;101454.00;5012892;28;20037;-82
2021/09/12 05:13:26;;;;;;;49.63;27.48;;;;;;;15.12;100.00;101458.94;4991050;28;20032;-82
2021/09/12 05:15:53;;;;;;;47.05;26.88;;;;;;;15.12;100.00;101460.75;5006185;28;20067;-83
2021/09/12 05:18:19;;;;;;;49.83;27.60;;;;;;;15.13;100.00;101462.44;5018636;28;20053;-82
2021/09/12 05:20:45;;;;;;;50.28;28.20;;;;;;;15.16;100.00;101462.94;5037387;28;20458;-82
2021/09/12 05:23:10;;;;;;;49.05;28.25;;;;;;;15.20;100.00;101468.75;5034386;28;20033;-80
2021/09/12 05:25:36;;;;;;;45.50;26.02;;;;;;;15.27;100.00;101475.03;5016323;28;20033;-82
2021/09/12 05:28:02;;;;;;;47.55;27.02;;;;;;;15.30;100.00;101476.53;5031042;28;20119;-83
2021/09/12 05:30:28;;;;;;;41.25;25.63;;;;;;;15.29;100.00;101462.47;5002317;28;20040;-83
2021/09/12 05:32:53;;;;;;;48.13;28.55;;;;;;;15.38;100.00;101469.44;5015479;28;20033;-82
2021/09/12 05:35:19;;;;;;;48.08;27.23;;;;;;;15.37;100.00;101469.63;5016551;28;20063;-83
2021/09/12 05:37:45;;;;;;;44.17;27.13;;;;;;;15.42;100.00;101472.59;5006105;28;20120;-84
2021/09/12 05:40:12;;;;;;;49.63;28.05;;;;;;;15.43;100.00;101476.91;5006887;28;20041;-83
2021/09/12 05:42:38;;;;;;;48.90;25.90;;;;;;;15.45;100.00;101471.47;5019975;28;20411;-82
2021/09/12 05:45:05;;;;;;;50.88;26.88;;;;;;;15.46;100.00;101473.94;4999711;28;20514;-81
2021/09/12 05:47:31;;;;;;;50.47;26.30;;;;;;;15.50;100.00;101474.44;5022809;28;20033;-81
2021/09/12 05:49:58;;;;;;;54.70;28.08;;;;;;;15.54;100.00;101479.25;5013967;28;20086;-81
2021/09/12 05:52:24;;;;;;;49.67;27.10;;;;;;;15.52;100.00;101467.16;4998076;28;20049;-82
2021/09/12 05:54:50;;;;;;;47.85;27.27;;;;;;;15.63;100.00;101481.91;4993456;28;20041;-80
2021/09/12 05:57:15;;;;;;;48.17;27.20;;;;;;;15.68;100.00;101484.91;5008412;28;20037;-82
2021/09/12 05:59:42;;;;;;;48.92;28.00;;;;;;;15.73;100.00;101491.41;5006402;28;20080;-81
2021/09/12 06:02:08;;;;;;;50.05;28.23;;;;;;;15.77;100.00;101481.31;5006728;28;20099;-82
2021/09/12 06:04:33;;;;;;;48.90;28.13;;;;;;;15.85;100.00;101496.38;5010229;28;20487;-83
2021/09/12 06:06:58;;;;;;;47.22;26.48;;;;;;;15.87;100.00;101484.63;5017130;28;20398;-82
2021/09/12 06:09:24;;;;;;;51.90;29.75;;;;;;;15.91;100.00;101491.25;5000032;28;20041;-83
2021/09/12 06:11:50;;;;;;;45.85;28.23;;;;;;;15.99;100.00;101487.78;5037864;28;20393;-82
2021/09/12 06:14:16;;;;;;;46.85;25.85;;;;;;;16.05;100.00;101491.59;5021402;28;20066;-82
2021/09/12 06:16:41;;;;;;;48.72;26.90;;;;;;;16.11;100.00;101498.91;5012896;28;20040;-81
2021/09/12 06:19:07;;;;;;;55.08;28.35;;;;;;;16.16;100.00;101485.97;5005299;28;20510;-82
2021/09/12 06:21:33;;;;;;;47.30;28.92;;;;;;;16.21;100.00;101499.53;5001567;28;20033;-83
2021/09/12 06:23:59;;;;;;;45.90;28.42;;;;;;;16.23;100.00;101496.75;5009732;28;20033;-82
2021/09/12 06:26:25;;;;;;;48.78;29.40;;;;;;;16.20;100.00;101499.72;5003812;28;20032;-82
2021/09/12 06:28:51;;;;;;;43.72;26.40;;;;;;;16.23;100.00;101497.56;5044584;28;20035;-83
2021/09/12 06:31:17;;;;;;;51.70;30.13;;;;;;;16.23;100.00;101494.91;5019700;28;20060;-82
2021/09/12 06:33:42;;;;;;;48.22;27.52;;;;;;;16.30;100.00;101503.03;5003936;28;20064;-81
2021/09/12 06:36:08;;;;;;;53.15;28.27;;;;;;;16.33;100.00;101497.38;5021220;28;20040;-83
2021/09/12 06:38:34;;;;;;;49.42;27.63;;;;;;;16.38;100.00;101502.19;5018677;28;20052;-83
2021/09/12 06:41:00;;;;;;;50.85;27.70;;;;;;;16.39;100.00;101502.03;5001213;28;20040;-81
2021/09/12 06:43:25;;;;;;;44.67;26.42;;;;;;;16.40;100.00;101490.44;5001625;28;20121;-81
2021/09/12 06:45:51;;;;;;;48.65;28.05;;;;;;;16.46;100.00;101502.19;5017463;28;20036;-81
2021/09/12 06:48:16;;;;;;;47.97;27.48;;;;;;;16.50;100.00;101492.91;5030280;28;20065;-83
2021/09/12 06:50:42;;;;;;;50.03;27.20;;;;;;;16.52;100.00;101498.91;5027544;28;20033;-83
2021/09/12 06:53:08;;;;;;;44.72;26.92;;;;;;;16.51;100.00;101483.97;5013621;28;20040;-82
2021/09/12 06:55:33;;;;;;;45.67;27.17;;;;;;;16.63;100.00;101500.34;5029748;28;20843;-80
2021/09/12 06:57:59;;;;;;;41.70;24.73;;;;;;;16.70;100.00;101496.03;5024483;28;20119;-80
2021/09/12 07:00:25;;;;;;;39.45;23.58;;;;;;;16.77;100.00;101497.03;5005520;28;20044;-82
2021/09/12 07:02:50;;;;;;;46.20;26.30;;;;;;;16.78;100.00;101493.38;5019779;28;20146;-83
2021/09/12 07:05:16;;;;;;;41.20;25.60;;;;;;;16.81;100.00;101493.03;5016976;28;20519;-82
2021/09/12 07:07:41;;;;;;;43.92;24.77;;;;;;;16.85;100.00;101496.22;5024465;28;20067;-82
2021/09/12 07:10:08;;;;;;;44.08;26.20;;;;;;;16.89;100.00;101492.22;5021368;28;20127;-81
2021/09/12 07:12:33;;;;;;;40.42;24.77;;;;;;;16.87;100.00;101489.72;5013727;28;20135;-82
2021/09/12 07:14:59;;;;;;;38.88;24.02;;;;;;;16.97;100.00;101491.38;5008207;28;20820;-82
2021/09/12 07:17:24;;;;;;;36.63;23.30;;;;;;;16.99;100.00;101495.50;5018066;28;20038;-81
2021/09/12 07:19:49;;;;;;;38.67;24.60;;;;;;;17.07;100.00;101484.88;5017828;28;20061;-83
2021/09/12 07:22:15;;;;;;;34.97;23.60;;;;;;;17.11;100.00;101494.13;5001182;28;20385;-84
2021/09/12 07:24:41;;;;;;;39.58;23.60;;;;;;;17.10;100.00;101492.50;5022214;28;20061;-81
2021/09/12 07:27:06;;;;;;;37.25;23.35;;;;;;;17.15;100.00;101499.91;5032531;28;20031;-81
2021/09/12 07:29:32;;;;;;;37.38;23.00;;;;;;;17.17;100.00;101497.09;5024310;28;20402;-82
2021/09/12 07:31:59;;;;;;;32.90;22.27;;;;;;;17.27;100.00;101501.22;5024308;28;20051;-81
2021/09/12 07:34:25;;;;;;;34.72;20.80;;;;;;;17.26;100.00;101483.63;5041315;28;20123;-84
2021/09/12 07:36:52;;;;;;;31.27;20.92;;;;;;;17.45;100.00;101497.47;5016254;28;20060;-83
2021/09/12 07:39:17;;;;;;;34.03;20.70;;;;;;;17.50;100.00;101500.44;5041226;28;20036;-82
2021/09/12 07:41:43;;;;;;;32.05;20.77;;;;;;;17.45;100.00;101489.53;5050842;28;20021;-83
2021/09/12 07:44:09;;;;;;;28.65;19.83;;;;;;;17.52;100.00;101488.66;5026473;28;20032;-83
2021/09/12 07:46:35;;;;;;;27.27;18.65;;;;;;;17.57;100.00;101503.22;5021498;28;20028;-82
2021/09/12 07:49:01;;;;;;;29.08;18.05;;;;;;;17.57;100.00;101492.59;5011515;28;20127;-84
2021/09/12 07:51:26;;;;;;;28.70;19.00;;;;;;;17.43;100.00;101483.56;5031299;28;20120;-81
2021/09/12 07:53:52;;;;;;;25.95;17.40;;;;;;;17.60;100.00;101501.03;5004945;28;20566;-84
2021/09/12 07:56:18;;;;;;;27.45;18.10;;;;;;;17.74;100.00;101504.75;5038119;28;20083;-82
2021/09/12 07:58:43;;;;;;;30.05;18.20;;;;;;;17.83;100.00;101471.88;5039704;28;20086;-83
2021/09/12 08:01:09;;;;;;;26.73;17.35;;;;;;;18.17;100.00;101494.53;5011825;28;20037;-81
2021/09/12 08:03:35;;;;;;;27.08;18.65;;;;;;;18.01;100.00;101481.41;4985487;28;20068;-83
2021/09/12 08:06:01;;;;;;;29.42;19.35;;;;;;;18.01;100.00;101489.38;5001216;28;20033;-82
2021/09/12 08:08:27;;;;;;;29.40;18.90;;;;;;;18.05;100.00;101509.25;5000393;28;20414;-82
2021/09/12 08:10:52;;;;;;;27.23;17.40;;;;;;;17.96;100.00;101499.69;5015795;28;20036;-81
2021/09/12 08:13:18;;;;;;;26.63;17.65;;;;;;;18.16;100.00;101510.66;5057316;28;20467;-82
2021/09/12 08:15:44;;;;;;;28.48;17.27;;;;;;;18.13;100.00;101506.53;5024666;28;20029;-82
2021/09/12 08:18:10;;;;;;;28.33;18.10;;;;;;;18.17;100.00;101507.00;5016904;28;20068;-81
2021/09/12 08:20:36;;;;;;;24.70;18.58;;;;;;;18.40;100.00;101517.59;5012142;28;20025;-83
2021/09/12 08:23:02;;;;;;;27.88;17.92;;;;;;;18.64;100.00;101520.03;5004171;28;20079;-84
2021/09/12 08:25:28;;;;;;;23.95;17.40;;;;;;;18.64;100.00;101504.09;5017276;28;20786;-82
2021/09/12 08:27:54;;;;;;;26.30;17.80;;;;;;;18.70;100.00;101507.03;5046062;28;20526;-81
2021/09/12 08:30:20;;;;;;;25.83;19.17;;;;;;;18.58;100.00;101507.47;5034982;28;20050;-82
2021/09/12 08:32:45;;;;;;;30.48;18.33;;;;;;;18.57;100.00;101523.59;5030980;28;20029;-82
2021/09/12 08:35:11;;;;;;;27.65;18.70;;;;;;;18.56;100.00;101528.09;5004316;28;20036;-80
2021/09/12 08:37:37;;;;;;;25.80;17.80;;;;;;;18.47;100.00;101522.00;5012465;28;20074;-80
2021/09/12 08:40:04;;;;;;;27.75;17.88;;;;;;;18.32;100.00;101520.31;5023395;28;20043;-82
2021/09/12 08:42:31;;;;;;;28.75;19.15;;;;;;;18.26;100.00;101528.00;5032858;28;20087;-80
2021/09/12 08:44:58;;;;;;;33.33;19.17;;;;;;;18.29;100.00;101535.63;4986354;28;20041;-80
2021/09/12 08:47:24;;;;;;;29.50;19.27;;;;;;;18.25;100.00;101536.97;5003665;28;20397;-78
2021/09/12 08:49:49;;;;;;;32.55;19.90;;;;;;;18.18;100.00;101536.03;5024583;28;20803;-80
2021/09/12 08:52:15;;;;;;;30.63;18.48;;;;;;;18.15;100.00;101536.38;5020090;28;20029;-81
2021/09/12 08:54:42;;;;;;;33.13;20.38;;;;;;;18.17;100.00;101531.72;5016019;28;20035;-80
2021/09/12 08:57:08;;;;;;;31.50;19.80;;;;;;;18.14;100.00;101532.09;5012218;28;20041;-79
2021/09/12 08:59:35;;;;;;;26.67;18.83;;;;;;;18.09;100.00;101523.81;5026683;28;20033;-80
2021/09/12 09:02:03;;;;;;;30.55;19.25;;;;;;;18.04;100.00;101529.66;5035675;28;20063;-79
2021/09/12 09:04:30;;;;;;;28.73;19.10;;;;;;;18.09;100.00;101521.16;5029814;28;20032;-80
2021/09/12 09:07:07;;;;;;;27.98;18.63;;;;;;;18.13;100.00;101524.28;5010248;28;20026;-80
2021/09/12 09:09:46;;;;;;;29.70;19.70;;;;;;;18.26;100.00;101527.19;5023018;28;20041;-79
2021/09/12 09:12:26;;;;;;;28.63;17.75;;;;;;;18.68;100.00;101533.78;5010931;28;20029;-81
2021/09/12 09:15:07;;;;;;;28.75;17.20;;;;;;;19.20;100.00;101518.81;5024565;28;20533;-80
2021/09/12 09:17:46;;;;;;;23.70;16.08;;;;;;;19.54;100.00;101523.53;5013212;28;20319;-81
2021/09/12 09:20:16;;;;;;;23.08;15.27;;;;;;;19.85;100.00;101525.13;5023294;28;20059;-80
2021/09/12 09:22:45;;;;;;;23.42;14.25;;;;;;;20.18;98.48;101535.28;5023386;28;20737;-80
2021/09/12 09:25:20;;;;;;;21.17;14.48;;;;;;;20.34;100.00;101535.03;5018237;28;20731;-80
2021/09/12 09:28:06;;;;;;;17.85;13.15;;;;;;;20.45;99.90;101544.31;5009191;28;20028;-80
2021/09/12 09:31:08;;;;;;;19.40;13.52;;;;;;;20.54;99.31;101548.50;5008091;23;20186;-79
2021/09/12 09:33:33;;;;;;;28.20;14.07;;;;;;;20.26;98.36;101548.47;5054928;28;20422;-82
2021/09/12 09:36:06;;;;;;;21.15;13.77;;;;;;;19.94;100.00;101547.94;5063413;28;20041;-80
2021/09/12 09:38:39;;;;;;;25.00;14.32;;;;;;;19.50;100.00;101527.59;5058435;28;20037;-80
2021/09/12 09:41:06;;;;;;;24.63;13.98;;;;;;;19.20;100.00;101546.22;5040572;28;20517;-80
2021/09/12 09:43:52;;;;;;;23.65;14.35;;;;;;;19.00;100.00;101547.78;5012016;28;20040;-81
2021/09/12 09:46:33;;;;;;;18.80;14.68;;;;;;;18.99;100.00;101549.63;5053379;28;20040;-81
2021/09/12 09:49:01;;;;;;;27.67;15.63;;;;;;;19.11;100.00;101549.16;5068184;28;20059;-83
2021/09/12 09:51:28;;;;;;;23.35;15.38;;;;;;;19.22;100.00;101554.84;5022635;28;20064;-82
2021/09/12 09:53:55;;;;;;;22.10;14.00;;;;;;;19.33;100.00;101550.09;5036300;28;20111;-80
2021/09/12 09:56:22;;;;;;;20.88;14.60;;;;;;;19.33;100.00;101555.41;5023936;28;20030;-80
2021/09/12 09:58:49;;;;;;;26.80;15.73;;;;;;;19.08;100.00;101560.16;5054482;28;20112;-79
2021/09/12 10:01:15;;;;;;;24.40;16.00;;;;;;;18.86;100.00;101558.22;5062605;28;20031;-81
2021/09/12 10:03:41;;;;;;;24.83;15.50;;;;;;;18.55;100.00;101557.47;5055737;28;20037;-78
2021/09/12 10:06:07;;;;;;;25.27;16.17;;;;;;;18.51;100.00;101561.50;5047013;28;20388;-84
2021/09/12 10:08:34;;;;;;;31.27;16.52;;;;;;;18.52;100.00;101553.38;5038484;28;20036;-84
2021/09/12 10:10:59;;;;;;;24.90;16.42;;;;;;;18.51;100.00;101543.72;5031815;28;20025;-82
2021/09/12 10:13:26;;;;;;;28.73;16.58;;;;;;;18.83;100.00;101555.09;5026016;28;20041;-80
2021/09/12 10:15:55;;;;;;;27.90;15.00;;;;;;;19.11;100.00;101560.63;5021389;28;20033;-82
2021/09/12 10:18:28;;;;;;;23.60;15.15;;;;;;;19.24;100.00;101560.81;5037735;28;20028;-81
2021/09/12 10:20:54;;;;;;;24.67;15.45;;;;;;;19.41;100.00;101545.47;5042876;28;20037;-84
2021/09/12 10:23:24;;;;;;;27.08;15.05;;;;;;;19.41;100.00;101552.63;5038736;28;20052;-82
2021/09/12 10:25:50;;;;;;;22.73;15.18;;;;;;;19.43;100.00;101554.09;5027705;28;20102;-79
2021/09/12 10:28:36;;;;;;;20.67;13.32;;;;;;;19.34;100.00;101555.19;5019253;28;20128;-80
2021/09/12 10:31:35;;;;;;;25.10;14.10;;;;;;;19.13;100.00;101558.59;5022142;28;20403;-81
2021/09/12 10:34:12;;;;;;;22.75;14.15;;;;;;;18.97;100.00;101554.28;4985411;28;20077;-80
2021/09/12 10:36:40;;;;;;;26.17;14.15;;;;;;;18.73;100.00;101551.84;5053395;28;20124;-83
2021/09/12 10:39:32;;;;;;;20.45;13.68;;;;;;;18.58;100.00;101547.31;5050536;28;20549;-77
2021/09/12 10:42:16;;;;;;;25.00;15.40;;;;;;;18.49;100.00;101556.38;5055235;28;20514;-81
2021/09/12 10:44:42;;;;;;;28.13;13.85;;;;;;;18.62;100.00;101559.25;5037272;28;20036;-81
2021/09/12 10:47:09;;;;;;;24.75;14.23;;;;;;;18.73;100.00;101549.19;5031586;28;20037;-82
2021/09/12 10:49:35;;;;;;;24.02;14.35;;;;;;;18.85;100.00;101553.06;5047956;28;20121;-80
2021/09/12 10:52:01;;;;;;;20.38;13.80;;;;;;;18.90;100.00;101548.06;5045433;28;20091;-80
2021/09/12 10:54:26;;;;;;;21.67;13.20;;;;;;;19.04;100.00;101549.91;5035054;28;20571;-80
2021/09/12 10:57:07;;;;;;;23.70;12.30;;;;;;;19.01;100.00;101544.13;5058590;28;20495;-79
2021/09/12 10:59:33;;;;;;;20.10;12.43;;;;;;;19.13;100.00;101549.81;5053010;28;20071;-81
2021/09/12 11:02:00;;;;;;;17.27;11.27;;;;;;;19.22;100.00;101546.06;5031954;28;20541;-80